sensor_id;sensor_type;location;lat;lon;timestamp;P1;durP1;ratioP1;P2;durP2;ratioP2
10517;SDS011;5307;42.548;22.968;2022-12-29T00:02:13;61.75;;;31.55;;
10517;SDS011;5307;42.548;22.968;2022-12-29T00:04:41;62.72;;;29.13;;
10517;SDS011;5307;42.548;22.968;2022-12-29T00:07:09;45.95;;;24.20;;
10517;SDS011;5307;42.548;22.968;2022-12-29T00:09:36;37.65;;;21.48;;
10517;SDS011;5307;42.548;22.968;2022-12-29T00:12:03;42.47;;;23.65;;
10517;SDS011;5307;42.548;22.968;2022-12-29T00:14:31;43.08;;;21.90;;
10517;SDS011;5307;42.548;22.968;2022-12-29T00:17:29;41.92;;;22.70;;
10517;SDS011;5307;42.548;22.968;2022-12-29T00:19:56;40.30;;;22.10;;
10517;SDS011;5307;42.548;22.968;2022-12-29T00:22:41;38.60;;;21.83;;
10517;SDS011;5307;42.548;22.968;2022-12-29T00:25:26;39.80;;;22.00;;
10517;SDS011;5307;42.548;22.968;2022-12-29T00:28:10;39.35;;;21.33;;
10517;SDS011;5307;42.548;22.968;2022-12-29T00:30:58;38.28;;;20.35;;
10517;SDS011;5307;42.548;22.968;2022-12-29T00:33:42;39.47;;;20.05;;
10517;SDS011;5307;42.548;22.968;2022-12-29T00:36:27;39.38;;;19.85;;
10517;SDS011;5307;42.548;22.968;2022-12-29T00:38:59;31.90;;;18.02;;
10517;SDS011;5307;42.548;22.968;2022-12-29T00:41:46;34.72;;;17.67;;
10517;SDS011;5307;42.548;22.968;2022-12-29T00:44:30;34.35;;;19.67;;
10517;SDS011;5307;42.548;22.968;2022-12-29T00:46:57;39.72;;;21.73;;
10517;SDS011;5307;42.548;22.968;2022-12-29T00:49:27;45.75;;;23.40;;
10517;SDS011;5307;42.548;22.968;2022-12-29T00:51:59;39.60;;;21.15;;
10517;SDS011;5307;42.548;22.968;2022-12-29T00:54:30;37.15;;;20.80;;
10517;SDS011;5307;42.548;22.968;2022-12-29T00:56:58;38.55;;;19.70;;
10517;SDS011;5307;42.548;22.968;2022-12-29T00:59:26;36.88;;;18.95;;
10517;SDS011;5307;42.548;22.968;2022-12-29T01:01:53;42.13;;;21.55;;
10517;SDS011;5307;42.548;22.968;2022-12-29T01:04:20;43.22;;;21.60;;
10517;SDS011;5307;42.548;22.968;2022-12-29T01:06:49;44.47;;;22.38;;
10517;SDS011;5307;42.548;22.968;2022-12-29T01:09:16;43.47;;;21.50;;
10517;SDS011;5307;42.548;22.968;2022-12-29T01:12:02;49.92;;;22.88;;
10517;SDS011;5307;42.548;22.968;2022-12-29T01:17:16;38.30;;;20.35;;
10517;SDS011;5307;42.548;22.968;2022-12-29T01:19:42;42.20;;;21.83;;
10517;SDS011;5307;42.548;22.968;2022-12-29T01:22:09;39.35;;;21.25;;
10517;SDS011;5307;42.548;22.968;2022-12-29T01:24:36;45.65;;;22.98;;
10517;SDS011;5307;42.548;22.968;2022-12-29T01:27:04;45.75;;;21.77;;
10517;SDS011;5307;42.548;22.968;2022-12-29T01:32:29;49.65;;;22.92;;
10517;SDS011;5307;42.548;22.968;2022-12-29T01:50:03;44.05;;;22.33;;
10517;SDS011;5307;42.548;22.968;2022-12-29T01:52:33;46.38;;;24.08;;
10517;SDS011;5307;42.548;22.968;2022-12-29T01:55:06;47.75;;;22.92;;
10517;SDS011;5307;42.548;22.968;2022-12-29T02:06:40;41.20;;;21.20;;
10517;SDS011;5307;42.548;22.968;2022-12-29T02:09:11;41.13;;;20.70;;
10517;SDS011;5307;42.548;22.968;2022-12-29T02:11:38;35.60;;;20.27;;
10517;SDS011;5307;42.548;22.968;2022-12-29T02:14:07;40.17;;;22.10;;
10517;SDS011;5307;42.548;22.968;2022-12-29T02:16:40;40.53;;;21.15;;
10517;SDS011;5307;42.548;22.968;2022-12-29T02:22:17;37.38;;;21.73;;
10517;SDS011;5307;42.548;22.968;2022-12-29T02:25:00;34.80;;;20.25;;
10517;SDS011;5307;42.548;22.968;2022-12-29T02:27:58;40.75;;;21.77;;
10517;SDS011;5307;42.548;22.968;2022-12-29T02:30:59;47.90;;;24.80;;
10517;SDS011;5307;42.548;22.968;2022-12-29T02:33:37;40.97;;;21.80;;
10517;SDS011;5307;42.548;22.968;2022-12-29T02:36:19;43.47;;;23.67;;
10517;SDS011;5307;42.548;22.968;2022-12-29T02:38:59;42.08;;;22.58;;
10517;SDS011;5307;42.548;22.968;2022-12-29T02:41:33;44.90;;;23.05;;
10517;SDS011;5307;42.548;22.968;2022-12-29T02:44:05;47.88;;;23.25;;
10517;SDS011;5307;42.548;22.968;2022-12-29T02:46:43;39.67;;;23.08;;
10517;SDS011;5307;42.548;22.968;2022-12-29T02:49:26;50.70;;;23.77;;
10517;SDS011;5307;42.548;22.968;2022-12-29T02:51:58;43.40;;;23.13;;
10517;SDS011;5307;42.548;22.968;2022-12-29T02:54:29;44.42;;;22.05;;
10517;SDS011;5307;42.548;22.968;2022-12-29T02:57:09;42.03;;;22.50;;
10517;SDS011;5307;42.548;22.968;2022-12-29T02:59:38;41.75;;;23.05;;
10517;SDS011;5307;42.548;22.968;2022-12-29T03:02:10;45.00;;;23.48;;
10517;SDS011;5307;42.548;22.968;2022-12-29T03:05:08;38.45;;;22.77;;
10517;SDS011;5307;42.548;22.968;2022-12-29T03:07:50;46.83;;;24.10;;
10517;SDS011;5307;42.548;22.968;2022-12-29T03:10:30;39.58;;;22.90;;
10517;SDS011;5307;42.548;22.968;2022-12-29T03:13:07;45.95;;;21.90;;
10517;SDS011;5307;42.548;22.968;2022-12-29T03:16:00;35.50;;;20.65;;
10517;SDS011;5307;42.548;22.968;2022-12-29T03:18:39;37.58;;;21.00;;
10517;SDS011;5307;42.548;22.968;2022-12-29T03:21:12;35.58;;;19.77;;
10517;SDS011;5307;42.548;22.968;2022-12-29T03:23:43;40.90;;;21.48;;
10517;SDS011;5307;42.548;22.968;2022-12-29T03:26:15;37.00;;;20.02;;
10517;SDS011;5307;42.548;22.968;2022-12-29T03:28:45;38.70;;;20.30;;
10517;SDS011;5307;42.548;22.968;2022-12-29T03:31:17;44.50;;;24.60;;
10517;SDS011;5307;42.548;22.968;2022-12-29T03:33:46;43.22;;;24.08;;
10517;SDS011;5307;42.548;22.968;2022-12-29T03:36:16;51.72;;;25.73;;
10517;SDS011;5307;42.548;22.968;2022-12-29T03:38:50;49.05;;;26.38;;
10517;SDS011;5307;42.548;22.968;2022-12-29T03:41:26;46.67;;;25.77;;
10517;SDS011;5307;42.548;22.968;2022-12-29T03:43:56;43.90;;;26.17;;
10517;SDS011;5307;42.548;22.968;2022-12-29T03:46:23;44.28;;;24.80;;
10517;SDS011;5307;42.548;22.968;2022-12-29T03:48:51;48.83;;;25.73;;
10517;SDS011;5307;42.548;22.968;2022-12-29T03:51:17;48.92;;;23.17;;
10517;SDS011;5307;42.548;22.968;2022-12-29T03:53:44;45.45;;;23.33;;
10517;SDS011;5307;42.548;22.968;2022-12-29T03:56:11;42.70;;;22.67;;
10517;SDS011;5307;42.548;22.968;2022-12-29T03:58:38;38.50;;;20.23;;
10517;SDS011;5307;42.548;22.968;2022-12-29T04:01:05;36.45;;;20.45;;
10517;SDS011;5307;42.548;22.968;2022-12-29T04:03:32;34.95;;;19.02;;
10517;SDS011;5307;42.548;22.968;2022-12-29T04:06:00;39.17;;;20.75;;
10517;SDS011;5307;42.548;22.968;2022-12-29T04:08:27;42.75;;;24.27;;
10517;SDS011;5307;42.548;22.968;2022-12-29T04:10:53;46.13;;;23.67;;
10517;SDS011;5307;42.548;22.968;2022-12-29T04:13:20;39.85;;;20.55;;
10517;SDS011;5307;42.548;22.968;2022-12-29T04:15:47;37.65;;;18.75;;
10517;SDS011;5307;42.548;22.968;2022-12-29T04:18:14;35.03;;;19.88;;
10517;SDS011;5307;42.548;22.968;2022-12-29T04:20:41;36.85;;;20.50;;
10517;SDS011;5307;42.548;22.968;2022-12-29T04:23:29;39.97;;;20.90;;
10517;SDS011;5307;42.548;22.968;2022-12-29T04:25:57;37.33;;;20.25;;
10517;SDS011;5307;42.548;22.968;2022-12-29T04:28:24;39.50;;;20.25;;
10517;SDS011;5307;42.548;22.968;2022-12-29T04:30:51;46.35;;;23.08;;
10517;SDS011;5307;42.548;22.968;2022-12-29T04:33:18;36.47;;;20.98;;
10517;SDS011;5307;42.548;22.968;2022-12-29T04:35:45;44.88;;;24.13;;
10517;SDS011;5307;42.548;22.968;2022-12-29T04:38:12;50.22;;;23.88;;
10517;SDS011;5307;42.548;22.968;2022-12-29T04:40:40;42.22;;;25.70;;
10517;SDS011;5307;42.548;22.968;2022-12-29T04:43:08;53.25;;;25.92;;
10517;SDS011;5307;42.548;22.968;2022-12-29T04:45:35;47.35;;;25.10;;
10517;SDS011;5307;42.548;22.968;2022-12-29T04:48:02;52.67;;;28.92;;
10517;SDS011;5307;42.548;22.968;2022-12-29T04:50:29;70.28;;;35.88;;
10517;SDS011;5307;42.548;22.968;2022-12-29T04:52:56;76.95;;;38.75;;
10517;SDS011;5307;42.548;22.968;2022-12-29T04:55:23;82.80;;;40.58;;
10517;SDS011;5307;42.548;22.968;2022-12-29T04:57:51;72.03;;;38.38;;
10517;SDS011;5307;42.548;22.968;2022-12-29T05:00:18;58.33;;;33.92;;
10517;SDS011;5307;42.548;22.968;2022-12-29T05:02:45;54.63;;;29.75;;
10517;SDS011;5307;42.548;22.968;2022-12-29T05:05:12;51.60;;;29.58;;
10517;SDS011;5307;42.548;22.968;2022-12-29T05:07:38;49.70;;;28.25;;
10517;SDS011;5307;42.548;22.968;2022-12-29T05:10:06;59.40;;;31.88;;
10517;SDS011;5307;42.548;22.968;2022-12-29T05:12:34;63.53;;;32.72;;
10517;SDS011;5307;42.548;22.968;2022-12-29T05:15:04;56.03;;;31.00;;
10517;SDS011;5307;42.548;22.968;2022-12-29T05:20:45;54.75;;;30.25;;
10517;SDS011;5307;42.548;22.968;2022-12-29T05:23:12;60.03;;;31.80;;
10517;SDS011;5307;42.548;22.968;2022-12-29T05:25:40;70.03;;;34.75;;
10517;SDS011;5307;42.548;22.968;2022-12-29T05:28:06;82.57;;;39.15;;
10517;SDS011;5307;42.548;22.968;2022-12-29T05:30:35;70.25;;;36.67;;
10517;SDS011;5307;42.548;22.968;2022-12-29T05:33:02;84.35;;;42.40;;
10517;SDS011;5307;42.548;22.968;2022-12-29T05:35:31;84.82;;;41.60;;
10517;SDS011;5307;42.548;22.968;2022-12-29T05:37:58;82.15;;;41.40;;
10517;SDS011;5307;42.548;22.968;2022-12-29T05:40:25;82.07;;;42.60;;
10517;SDS011;5307;42.548;22.968;2022-12-29T05:42:51;87.13;;;44.60;;
10517;SDS011;5307;42.548;22.968;2022-12-29T05:45:18;86.13;;;44.22;;
10517;SDS011;5307;42.548;22.968;2022-12-29T05:47:46;80.85;;;38.75;;
10517;SDS011;5307;42.548;22.968;2022-12-29T05:50:13;77.22;;;39.67;;
10517;SDS011;5307;42.548;22.968;2022-12-29T05:52:42;80.35;;;41.95;;
10517;SDS011;5307;42.548;22.968;2022-12-29T05:55:08;76.63;;;40.65;;
10517;SDS011;5307;42.548;22.968;2022-12-29T05:57:35;77.28;;;42.97;;
10517;SDS011;5307;42.548;22.968;2022-12-29T06:00:02;72.10;;;40.22;;
10517;SDS011;5307;42.548;22.968;2022-12-29T06:02:30;80.15;;;41.88;;
10517;SDS011;5307;42.548;22.968;2022-12-29T06:04:58;76.97;;;39.47;;
10517;SDS011;5307;42.548;22.968;2022-12-29T06:07:25;79.82;;;43.45;;
10517;SDS011;5307;42.548;22.968;2022-12-29T06:09:52;74.60;;;43.67;;
10517;SDS011;5307;42.548;22.968;2022-12-29T06:12:19;76.63;;;43.30;;
10517;SDS011;5307;42.548;22.968;2022-12-29T06:14:45;79.72;;;42.15;;
10517;SDS011;5307;42.548;22.968;2022-12-29T06:17:12;77.28;;;41.53;;
10517;SDS011;5307;42.548;22.968;2022-12-29T06:19:39;71.25;;;39.85;;
10517;SDS011;5307;42.548;22.968;2022-12-29T06:22:07;76.80;;;39.42;;
10517;SDS011;5307;42.548;22.968;2022-12-29T06:24:37;72.35;;;41.15;;
10517;SDS011;5307;42.548;22.968;2022-12-29T06:27:04;72.07;;;40.92;;
10517;SDS011;5307;42.548;22.968;2022-12-29T06:29:30;67.70;;;39.65;;
10517;SDS011;5307;42.548;22.968;2022-12-29T06:31:57;68.25;;;38.35;;
10517;SDS011;5307;42.548;22.968;2022-12-29T06:34:24;67.50;;;37.58;;
10517;SDS011;5307;42.548;22.968;2022-12-29T06:36:51;74.50;;;39.17;;
10517;SDS011;5307;42.548;22.968;2022-12-29T06:39:19;67.60;;;39.15;;
10517;SDS011;5307;42.548;22.968;2022-12-29T06:41:46;82.78;;;41.63;;
10517;SDS011;5307;42.548;22.968;2022-12-29T06:44:13;70.35;;;39.80;;
10517;SDS011;5307;42.548;22.968;2022-12-29T06:46:39;79.88;;;40.28;;
10517;SDS011;5307;42.548;22.968;2022-12-29T06:49:06;92.57;;;47.45;;
10517;SDS011;5307;42.548;22.968;2022-12-29T06:51:33;196.50;;;73.30;;
10517;SDS011;5307;42.548;22.968;2022-12-29T06:54:00;128.15;;;54.97;;
10517;SDS011;5307;42.548;22.968;2022-12-29T06:56:28;113.20;;;49.40;;
10517;SDS011;5307;42.548;22.968;2022-12-29T06:58:55;150.25;;;59.22;;
10517;SDS011;5307;42.548;22.968;2022-12-29T07:01:21;128.07;;;53.53;;
10517;SDS011;5307;42.548;22.968;2022-12-29T07:03:48;120.15;;;48.75;;
10517;SDS011;5307;42.548;22.968;2022-12-29T07:06:15;101.10;;;52.25;;
10517;SDS011;5307;42.548;22.968;2022-12-29T07:08:42;105.63;;;53.58;;
10517;SDS011;5307;42.548;22.968;2022-12-29T07:11:09;94.03;;;50.75;;
10517;SDS011;5307;42.548;22.968;2022-12-29T07:13:37;93.43;;;47.85;;
10517;SDS011;5307;42.548;22.968;2022-12-29T07:16:04;94.78;;;48.75;;
10517;SDS011;5307;42.548;22.968;2022-12-29T07:18:32;95.70;;;51.50;;
10517;SDS011;5307;42.548;22.968;2022-12-29T07:20:59;82.35;;;41.67;;
10517;SDS011;5307;42.548;22.968;2022-12-29T07:23:26;89.68;;;44.80;;
10517;SDS011;5307;42.548;22.968;2022-12-29T07:25:58;91.25;;;47.33;;
10517;SDS011;5307;42.548;22.968;2022-12-29T07:28:25;82.32;;;44.13;;
10517;SDS011;5307;42.548;22.968;2022-12-29T07:30:54;95.93;;;47.95;;
10517;SDS011;5307;42.548;22.968;2022-12-29T07:33:20;109.47;;;58.58;;
10517;SDS011;5307;42.548;22.968;2022-12-29T07:35:47;116.45;;;60.42;;
10517;SDS011;5307;42.548;22.968;2022-12-29T07:38:14;125.82;;;66.43;;
10517;SDS011;5307;42.548;22.968;2022-12-29T07:40:41;121.93;;;64.63;;
10517;SDS011;5307;42.548;22.968;2022-12-29T07:43:08;109.35;;;58.78;;
10517;SDS011;5307;42.548;22.968;2022-12-29T07:45:35;105.53;;;58.80;;
10517;SDS011;5307;42.548;22.968;2022-12-29T07:48:03;106.22;;;59.58;;
10517;SDS011;5307;42.548;22.968;2022-12-29T07:50:32;102.15;;;56.10;;
10517;SDS011;5307;42.548;22.968;2022-12-29T07:52:59;97.22;;;53.90;;
10517;SDS011;5307;42.548;22.968;2022-12-29T07:55:27;107.97;;;57.08;;
10517;SDS011;5307;42.548;22.968;2022-12-29T07:57:54;116.07;;;60.08;;
10517;SDS011;5307;42.548;22.968;2022-12-29T08:00:21;116.53;;;63.00;;
10517;SDS011;5307;42.548;22.968;2022-12-29T08:02:48;118.63;;;63.35;;
10517;SDS011;5307;42.548;22.968;2022-12-29T08:05:17;121.72;;;63.22;;
10517;SDS011;5307;42.548;22.968;2022-12-29T08:07:44;127.97;;;67.90;;
10517;SDS011;5307;42.548;22.968;2022-12-29T08:10:12;126.18;;;68.97;;
10517;SDS011;5307;42.548;22.968;2022-12-29T08:12:40;130.15;;;69.38;;
10517;SDS011;5307;42.548;22.968;2022-12-29T08:15:08;143.07;;;75.20;;
10517;SDS011;5307;42.548;22.968;2022-12-29T08:17:37;145.10;;;76.00;;
10517;SDS011;5307;42.548;22.968;2022-12-29T08:20:04;134.70;;;73.10;;
10517;SDS011;5307;42.548;22.968;2022-12-29T08:22:33;132.75;;;74.95;;
10517;SDS011;5307;42.548;22.968;2022-12-29T08:25:00;134.68;;;70.18;;
10517;SDS011;5307;42.548;22.968;2022-12-29T08:27:27;119.22;;;63.63;;
10517;SDS011;5307;42.548;22.968;2022-12-29T08:29:54;127.82;;;68.88;;
10517;SDS011;5307;42.548;22.968;2022-12-29T08:32:20;138.93;;;73.55;;
10517;SDS011;5307;42.548;22.968;2022-12-29T08:34:47;133.40;;;68.93;;
10517;SDS011;5307;42.548;22.968;2022-12-29T08:37:14;131.95;;;64.97;;
10517;SDS011;5307;42.548;22.968;2022-12-29T08:39:42;108.35;;;56.72;;
10517;SDS011;5307;42.548;22.968;2022-12-29T08:42:09;120.90;;;66.88;;
10517;SDS011;5307;42.548;22.968;2022-12-29T08:44:36;112.97;;;58.92;;
10517;SDS011;5307;42.548;22.968;2022-12-29T08:47:02;106.65;;;56.60;;
10517;SDS011;5307;42.548;22.968;2022-12-29T08:49:30;85.30;;;48.13;;
10517;SDS011;5307;42.548;22.968;2022-12-29T08:51:58;85.57;;;46.45;;
10517;SDS011;5307;42.548;22.968;2022-12-29T08:54:25;74.03;;;43.15;;
10517;SDS011;5307;42.548;22.968;2022-12-29T08:56:53;73.53;;;43.25;;
10517;SDS011;5307;42.548;22.968;2022-12-29T08:59:20;77.40;;;42.90;;
10517;SDS011;5307;42.548;22.968;2022-12-29T09:01:46;61.38;;;35.75;;
10517;SDS011;5307;42.548;22.968;2022-12-29T09:04:13;67.00;;;37.30;;
10517;SDS011;5307;42.548;22.968;2022-12-29T09:06:40;59.47;;;35.33;;
10517;SDS011;5307;42.548;22.968;2022-12-29T09:09:06;70.90;;;40.10;;
10517;SDS011;5307;42.548;22.968;2022-12-29T09:11:33;69.03;;;39.85;;
10517;SDS011;5307;42.548;22.968;2022-12-29T09:14:02;68.97;;;36.55;;
10517;SDS011;5307;42.548;22.968;2022-12-29T09:16:28;61.63;;;35.42;;
10517;SDS011;5307;42.548;22.968;2022-12-29T09:18:55;52.15;;;32.20;;
10517;SDS011;5307;42.548;22.968;2022-12-29T09:21:22;58.55;;;33.83;;
10517;SDS011;5307;42.548;22.968;2022-12-29T09:23:49;55.78;;;31.02;;
10517;SDS011;5307;42.548;22.968;2022-12-29T09:26:15;58.20;;;31.73;;
10517;SDS011;5307;42.548;22.968;2022-12-29T09:28:42;54.92;;;30.95;;
10517;SDS011;5307;42.548;22.968;2022-12-29T09:31:11;55.88;;;30.63;;
10517;SDS011;5307;42.548;22.968;2022-12-29T09:33:38;50.95;;;32.20;;
10517;SDS011;5307;42.548;22.968;2022-12-29T09:36:06;57.72;;;31.45;;
10517;SDS011;5307;42.548;22.968;2022-12-29T09:38:34;56.63;;;30.50;;
10517;SDS011;5307;42.548;22.968;2022-12-29T09:41:04;58.75;;;33.13;;
10517;SDS011;5307;42.548;22.968;2022-12-29T09:43:50;56.20;;;31.63;;
10517;SDS011;5307;42.548;22.968;2022-12-29T09:46:27;53.42;;;31.02;;
10517;SDS011;5307;42.548;22.968;2022-12-29T09:48:57;63.17;;;34.13;;
10517;SDS011;5307;42.548;22.968;2022-12-29T09:51:33;59.40;;;32.88;;
10517;SDS011;5307;42.548;22.968;2022-12-29T09:54:07;55.80;;;32.88;;
10517;SDS011;5307;42.548;22.968;2022-12-29T09:56:47;59.00;;;33.97;;
10517;SDS011;5307;42.548;22.968;2022-12-29T09:59:16;55.55;;;29.70;;
10517;SDS011;5307;42.548;22.968;2022-12-29T10:01:51;45.50;;;25.13;;
10517;SDS011;5307;42.548;22.968;2022-12-29T10:04:25;34.83;;;23.05;;
10517;SDS011;5307;42.548;22.968;2022-12-29T10:06:54;42.42;;;22.73;;
10517;SDS011;5307;42.548;22.968;2022-12-29T10:09:29;43.20;;;25.67;;
10517;SDS011;5307;42.548;22.968;2022-12-29T10:12:03;42.40;;;24.77;;
10517;SDS011;5307;42.548;22.968;2022-12-29T10:14:47;43.30;;;26.40;;
10517;SDS011;5307;42.548;22.968;2022-12-29T10:17:26;44.83;;;25.38;;
10517;SDS011;5307;42.548;22.968;2022-12-29T10:20:05;39.75;;;24.70;;
10517;SDS011;5307;42.548;22.968;2022-12-29T10:22:48;40.75;;;23.52;;
10517;SDS011;5307;42.548;22.968;2022-12-29T10:25:32;40.85;;;24.45;;
10517;SDS011;5307;42.548;22.968;2022-12-29T10:28:04;47.42;;;25.23;;
10517;SDS011;5307;42.548;22.968;2022-12-29T10:30:41;37.88;;;20.85;;
10517;SDS011;5307;42.548;22.968;2022-12-29T10:33:11;41.85;;;23.38;;
10517;SDS011;5307;42.548;22.968;2022-12-29T10:35:43;40.38;;;22.05;;
10517;SDS011;5307;42.548;22.968;2022-12-29T10:38:12;33.55;;;18.30;;
10517;SDS011;5307;42.548;22.968;2022-12-29T10:40:48;32.42;;;19.02;;
10517;SDS011;5307;42.548;22.968;2022-12-29T10:43:22;33.47;;;17.83;;
10517;SDS011;5307;42.548;22.968;2022-12-29T10:45:52;23.30;;;13.48;;
10517;SDS011;5307;42.548;22.968;2022-12-29T10:48:22;24.08;;;15.52;;
10517;SDS011;5307;42.548;22.968;2022-12-29T10:50:53;22.45;;;15.15;;
10517;SDS011;5307;42.548;22.968;2022-12-29T10:53:25;22.40;;;14.15;;
10517;SDS011;5307;42.548;22.968;2022-12-29T10:55:57;17.67;;;10.05;;
10517;SDS011;5307;42.548;22.968;2022-12-29T10:58:27;25.73;;;15.07;;
10517;SDS011;5307;42.548;22.968;2022-12-29T11:00:55;27.65;;;15.40;;
10517;SDS011;5307;42.548;22.968;2022-12-29T11:03:36;24.90;;;14.63;;
10517;SDS011;5307;42.548;22.968;2022-12-29T11:06:24;24.17;;;14.80;;
10517;SDS011;5307;42.548;22.968;2022-12-29T11:08:53;30.13;;;13.98;;
10517;SDS011;5307;42.548;22.968;2022-12-29T11:11:24;15.85;;;10.80;;
10517;SDS011;5307;42.548;22.968;2022-12-29T11:13:56;21.80;;;13.57;;
10517;SDS011;5307;42.548;22.968;2022-12-29T11:16:28;29.63;;;17.05;;
10517;SDS011;5307;42.548;22.968;2022-12-29T11:18:58;20.83;;;13.07;;
10517;SDS011;5307;42.548;22.968;2022-12-29T11:21:27;26.83;;;15.15;;
10517;SDS011;5307;42.548;22.968;2022-12-29T11:23:58;21.95;;;13.65;;
10517;SDS011;5307;42.548;22.968;2022-12-29T11:26:26;25.50;;;13.13;;
10517;SDS011;5307;42.548;22.968;2022-12-29T11:31:46;23.30;;;15.90;;
10517;SDS011;5307;42.548;22.968;2022-12-29T11:34:20;22.50;;;13.77;;
10517;SDS011;5307;42.548;22.968;2022-12-29T11:36:48;21.95;;;13.32;;
10517;SDS011;5307;42.548;22.968;2022-12-29T11:39:23;21.02;;;12.57;;
10517;SDS011;5307;42.548;22.968;2022-12-29T11:41:54;23.02;;;13.10;;
10517;SDS011;5307;42.548;22.968;2022-12-29T11:44:21;55.38;;;27.95;;
10517;SDS011;5307;42.548;22.968;2022-12-29T11:46:48;19.33;;;13.02;;
10517;SDS011;5307;42.548;22.968;2022-12-29T11:49:20;31.13;;;15.45;;
10517;SDS011;5307;42.548;22.968;2022-12-29T11:51:51;24.38;;;14.95;;
10517;SDS011;5307;42.548;22.968;2022-12-29T11:54:22;23.35;;;14.05;;
10517;SDS011;5307;42.548;22.968;2022-12-29T11:56:51;26.50;;;12.45;;
10517;SDS011;5307;42.548;22.968;2022-12-29T11:59:36;25.63;;;13.07;;
10517;SDS011;5307;42.548;22.968;2022-12-29T12:05:09;25.95;;;14.57;;
10517;SDS011;5307;42.548;22.968;2022-12-29T12:07:41;28.48;;;15.90;;
10517;SDS011;5307;42.548;22.968;2022-12-29T12:10:18;38.70;;;21.92;;
10517;SDS011;5307;42.548;22.968;2022-12-29T12:12:51;28.02;;;15.63;;
10517;SDS011;5307;42.548;22.968;2022-12-29T12:15:24;53.85;;;25.55;;
10517;SDS011;5307;42.548;22.968;2022-12-29T12:17:55;68.32;;;31.58;;
10517;SDS011;5307;42.548;22.968;2022-12-29T12:20:36;41.08;;;21.88;;
10517;SDS011;5307;42.548;22.968;2022-12-29T12:23:13;25.45;;;12.52;;
10517;SDS011;5307;42.548;22.968;2022-12-29T12:25:54;17.42;;;11.00;;
10517;SDS011;5307;42.548;22.968;2022-12-29T12:28:27;40.75;;;20.98;;
10517;SDS011;5307;42.548;22.968;2022-12-29T12:31:01;23.42;;;13.18;;
10517;SDS011;5307;42.548;22.968;2022-12-29T12:33:31;17.70;;;12.73;;
10517;SDS011;5307;42.548;22.968;2022-12-29T12:39:06;33.42;;;17.58;;
10517;SDS011;5307;42.548;22.968;2022-12-29T12:41:41;20.77;;;12.48;;
10517;SDS011;5307;42.548;22.968;2022-12-29T12:44:18;57.95;;;27.73;;
10517;SDS011;5307;42.548;22.968;2022-12-29T12:47:05;115.15;;;45.70;;
10517;SDS011;5307;42.548;22.968;2022-12-29T12:52:42;45.97;;;19.42;;
10517;SDS011;5307;42.548;22.968;2022-12-29T12:55:33;39.45;;;18.90;;
10517;SDS011;5307;42.548;22.968;2022-12-29T12:58:13;96.72;;;42.13;;
10517;SDS011;5307;42.548;22.968;2022-12-29T13:00:49;26.75;;;16.65;;
10517;SDS011;5307;42.548;22.968;2022-12-29T13:03:41;90.07;;;37.72;;
10517;SDS011;5307;42.548;22.968;2022-12-29T13:06:18;31.25;;;19.02;;
10517;SDS011;5307;42.548;22.968;2022-12-29T13:08:58;21.83;;;10.95;;
10517;SDS011;5307;42.548;22.968;2022-12-29T13:11:46;23.13;;;12.02;;
10517;SDS011;5307;42.548;22.968;2022-12-29T13:14:24;19.88;;;12.70;;
10517;SDS011;5307;42.548;22.968;2022-12-29T13:17:03;18.48;;;11.73;;
10517;SDS011;5307;42.548;22.968;2022-12-29T13:19:36;17.52;;;11.65;;
10517;SDS011;5307;42.548;22.968;2022-12-29T13:22:08;69.60;;;30.83;;
10517;SDS011;5307;42.548;22.968;2022-12-29T13:24:46;23.08;;;13.73;;
10517;SDS011;5307;42.548;22.968;2022-12-29T13:27:23;40.53;;;19.60;;
10517;SDS011;5307;42.548;22.968;2022-12-29T13:29:58;104.95;;;39.05;;
10517;SDS011;5307;42.548;22.968;2022-12-29T13:32:33;21.48;;;13.98;;
10517;SDS011;5307;42.548;22.968;2022-12-29T13:35:11;19.10;;;13.32;;
10517;SDS011;5307;42.548;22.968;2022-12-29T13:37:51;67.00;;;29.23;;
10517;SDS011;5307;42.548;22.968;2022-12-29T13:40:21;29.08;;;15.60;;
10517;SDS011;5307;42.548;22.968;2022-12-29T13:42:52;21.90;;;14.40;;
10517;SDS011;5307;42.548;22.968;2022-12-29T13:45:22;51.80;;;25.52;;
10517;SDS011;5307;42.548;22.968;2022-12-29T13:47:53;19.60;;;13.75;;
10517;SDS011;5307;42.548;22.968;2022-12-29T13:50:26;25.70;;;14.23;;
10517;SDS011;5307;42.548;22.968;2022-12-29T13:52:59;24.17;;;14.75;;
10517;SDS011;5307;42.548;22.968;2022-12-29T13:55:34;32.25;;;17.60;;
10517;SDS011;5307;42.548;22.968;2022-12-29T13:58:09;21.50;;;14.43;;
10517;SDS011;5307;42.548;22.968;2022-12-29T14:00:46;18.52;;;12.32;;
10517;SDS011;5307;42.548;22.968;2022-12-29T14:03:35;22.90;;;14.27;;
10517;SDS011;5307;42.548;22.968;2022-12-29T14:06:12;29.02;;;14.82;;
10517;SDS011;5307;42.548;22.968;2022-12-29T14:08:43;17.77;;;11.77;;
10517;SDS011;5307;42.548;22.968;2022-12-29T14:11:11;17.30;;;11.75;;
10517;SDS011;5307;42.548;22.968;2022-12-29T14:13:42;18.83;;;11.70;;
10517;SDS011;5307;42.548;22.968;2022-12-29T14:16:21;28.65;;;15.02;;
10517;SDS011;5307;42.548;22.968;2022-12-29T14:18:52;23.98;;;14.45;;
10517;SDS011;5307;42.548;22.968;2022-12-29T14:21:22;24.20;;;15.23;;
10517;SDS011;5307;42.548;22.968;2022-12-29T14:23:57;42.55;;;21.38;;
10517;SDS011;5307;42.548;22.968;2022-12-29T14:26:52;61.22;;;33.30;;
10517;SDS011;5307;42.548;22.968;2022-12-29T14:29:43;37.05;;;22.67;;
10517;SDS011;5307;42.548;22.968;2022-12-29T14:38:05;36.42;;;19.75;;
10517;SDS011;5307;42.548;22.968;2022-12-29T14:40:33;51.50;;;23.95;;
10517;SDS011;5307;42.548;22.968;2022-12-29T14:43:00;44.72;;;23.65;;
10517;SDS011;5307;42.548;22.968;2022-12-29T14:45:29;74.40;;;33.58;;
10517;SDS011;5307;42.548;22.968;2022-12-29T14:48:01;79.13;;;32.78;;
10517;SDS011;5307;42.548;22.968;2022-12-29T14:50:47;126.75;;;48.38;;
10517;SDS011;5307;42.548;22.968;2022-12-29T14:56:09;48.72;;;27.65;;
10517;SDS011;5307;42.548;22.968;2022-12-29T14:58:38;52.35;;;28.23;;
10517;SDS011;5307;42.548;22.968;2022-12-29T15:01:17;45.53;;;24.60;;
10517;SDS011;5307;42.548;22.968;2022-12-29T15:03:48;92.65;;;38.15;;
10517;SDS011;5307;42.548;22.968;2022-12-29T15:06:18;73.20;;;36.45;;
10517;SDS011;5307;42.548;22.968;2022-12-29T15:08:49;83.05;;;34.83;;
10517;SDS011;5307;42.548;22.968;2022-12-29T15:11:20;60.05;;;28.80;;
10517;SDS011;5307;42.548;22.968;2022-12-29T15:13:49;69.60;;;31.15;;
10517;SDS011;5307;42.548;22.968;2022-12-29T15:16:24;53.20;;;25.38;;
10517;SDS011;5307;42.548;22.968;2022-12-29T15:18:55;52.28;;;27.55;;
10517;SDS011;5307;42.548;22.968;2022-12-29T15:21:23;45.13;;;26.02;;
10517;SDS011;5307;42.548;22.968;2022-12-29T15:23:52;51.53;;;23.95;;
10517;SDS011;5307;42.548;22.968;2022-12-29T15:26:19;43.03;;;25.70;;
10517;SDS011;5307;42.548;22.968;2022-12-29T15:28:48;50.38;;;25.08;;
10517;SDS011;5307;42.548;22.968;2022-12-29T15:31:17;36.92;;;19.98;;
10517;SDS011;5307;42.548;22.968;2022-12-29T15:33:47;46.53;;;20.50;;
10517;SDS011;5307;42.548;22.968;2022-12-29T15:36:18;40.83;;;20.40;;
10517;SDS011;5307;42.548;22.968;2022-12-29T15:38:47;36.28;;;18.27;;
10517;SDS011;5307;42.548;22.968;2022-12-29T15:41:19;30.05;;;16.92;;
10517;SDS011;5307;42.548;22.968;2022-12-29T15:43:53;28.08;;;15.30;;